メインページ
METAR-TAF:

METAR-TAF

空港 :

カーシャーン, イラン

緯度: 33-59N, 経度: 051-27E, 海抜: 982m

現時点の気象観測

当レポートは1時間22分前の14:00(UTC)に作成
無風
気温 10°C
湿度 71%
気圧 1020 hPa
視程10km以上
高度4000ftの雲はほとんどない

METAR: OIFK 181400Z 00000KT 9999 FEW040 10/05 Q1020

時間: 18:52 (15:22 UTC)


TAF: 見つかりません

4,000以上の空港の気象観測と天気予報(METAR報とTAF報)

利用可能な観測所は地図上に黄色い丸と赤い丸で示す。

丸の上にカーソルを重ねると観測所名を参照できる。

次にクリックすると気象観測と天気予報を参照できる。

マップの切り替え:黒色「×」印の緑ボタンをクリックして拡大、「-」印の緑ボタンをクリックして縮小、緑色の三角印をクリックして隣りの地図に切り替え


METAR-TAF: